sensor_id;sensor_type;location;lat;lon;timestamp;P1;durP1;ratioP1;P2;durP2;ratioP2
7523;SDS011;3803;51.666;7.630;2023-12-07T00:00:16;19.43;;;11.70;;
7523;SDS011;3803;51.666;7.630;2023-12-07T00:00:37;21.43;;;12.07;;
7523;SDS011;3803;51.666;7.630;2023-12-07T00:00:57;19.45;;;11.80;;
7523;SDS011;3803;51.666;7.630;2023-12-07T00:01:18;16.85;;;10.93;;
7523;SDS011;3803;51.666;7.630;2023-12-07T00:01:39;16.67;;;11.15;;
7523;SDS011;3803;51.666;7.630;2023-12-07T00:02:00;17.85;;;11.13;;
7523;SDS011;3803;51.666;7.630;2023-12-07T00:02:21;21.85;;;11.68;;
7523;SDS011;3803;51.666;7.630;2023-12-07T00:02:42;20.85;;;11.45;;
7523;SDS011;3803;51.666;7.630;2023-12-07T00:03:02;20.33;;;11.60;;
7523;SDS011;3803;51.666;7.630;2023-12-07T00:03:23;16.52;;;10.98;;
7523;SDS011;3803;51.666;7.630;2023-12-07T00:03:43;17.05;;;11.32;;
7523;SDS011;3803;51.666;7.630;2023-12-07T00:04:04;16.23;;;11.23;;
7523;SDS011;3803;51.666;7.630;2023-12-07T00:04:25;15.98;;;11.23;;
7523;SDS011;3803;51.666;7.630;2023-12-07T00:04:45;15.18;;;10.70;;
7523;SDS011;3803;51.666;7.630;2023-12-07T00:05:06;15.40;;;10.80;;
7523;SDS011;3803;51.666;7.630;2023-12-07T00:05:28;16.94;;;11.44;;
7523;SDS011;3803;51.666;7.630;2023-12-07T00:05:48;17.33;;;11.50;;
7523;SDS011;3803;51.666;7.630;2023-12-07T00:06:09;17.67;;;11.32;;
7523;SDS011;3803;51.666;7.630;2023-12-07T00:06:30;17.00;;;11.60;;
7523;SDS011;3803;51.666;7.630;2023-12-07T00:06:50;18.95;;;11.63;;
7523;SDS011;3803;51.666;7.630;2023-12-07T00:07:11;20.17;;;11.45;;
7523;SDS011;3803;51.666;7.630;2023-12-07T00:07:31;20.15;;;11.18;;
7523;SDS011;3803;51.666;7.630;2023-12-07T00:07:52;18.75;;;11.52;;
7523;SDS011;3803;51.666;7.630;2023-12-07T00:08:14;17.83;;;11.88;;
7523;SDS011;3803;51.666;7.630;2023-12-07T00:08:35;18.80;;;12.00;;
7523;SDS011;3803;51.666;7.630;2023-12-07T00:08:55;16.93;;;11.03;;
7523;SDS011;3803;51.666;7.630;2023-12-07T00:09:16;18.88;;;11.70;;
7523;SDS011;3803;51.666;7.630;2023-12-07T00:09:37;19.20;;;11.80;;
7523;SDS011;3803;51.666;7.630;2023-12-07T00:09:57;19.95;;;12.18;;
7523;SDS011;3803;51.666;7.630;2023-12-07T00:10:18;18.40;;;11.47;;
7523;SDS011;3803;51.666;7.630;2023-12-07T00:10:39;15.40;;;10.63;;
7523;SDS011;3803;51.666;7.630;2023-12-07T00:11:00;17.05;;;10.80;;
7523;SDS011;3803;51.666;7.630;2023-12-07T00:11:25;16.00;;;11.05;;
7523;SDS011;3803;51.666;7.630;2023-12-07T00:11:45;15.82;;;11.25;;
7523;SDS011;3803;51.666;7.630;2023-12-07T00:12:06;14.98;;;10.70;;
7523;SDS011;3803;51.666;7.630;2023-12-07T00:12:27;17.35;;;10.95;;
7523;SDS011;3803;51.666;7.630;2023-12-07T00:12:47;18.40;;;11.40;;
7523;SDS011;3803;51.666;7.630;2023-12-07T00:13:08;18.37;;;11.60;;
7523;SDS011;3803;51.666;7.630;2023-12-07T00:13:28;15.90;;;11.50;;
7523;SDS011;3803;51.666;7.630;2023-12-07T00:13:49;15.30;;;11.30;;
7523;SDS011;3803;51.666;7.630;2023-12-07T00:14:10;17.60;;;11.80;;
7523;SDS011;3803;51.666;7.630;2023-12-07T00:14:30;19.17;;;11.20;;
7523;SDS011;3803;51.666;7.630;2023-12-07T00:14:51;22.63;;;11.82;;
7523;SDS011;3803;51.666;7.630;2023-12-07T00:15:12;22.63;;;12.20;;
7523;SDS011;3803;51.666;7.630;2023-12-07T00:15:32;21.97;;;12.97;;
7523;SDS011;3803;51.666;7.630;2023-12-07T00:15:53;18.60;;;12.27;;
7523;SDS011;3803;51.666;7.630;2023-12-07T00:16:13;16.70;;;11.30;;
7523;SDS011;3803;51.666;7.630;2023-12-07T00:16:34;16.35;;;11.10;;
7523;SDS011;3803;51.666;7.630;2023-12-07T00:16:55;16.85;;;11.43;;
7523;SDS011;3803;51.666;7.630;2023-12-07T00:17:16;17.52;;;11.55;;
7523;SDS011;3803;51.666;7.630;2023-12-07T00:17:37;18.70;;;11.67;;
7523;SDS011;3803;51.666;7.630;2023-12-07T00:17:58;19.47;;;11.57;;
7523;SDS011;3803;51.666;7.630;2023-12-07T00:18:20;18.48;;;11.50;;
7523;SDS011;3803;51.666;7.630;2023-12-07T00:18:41;18.00;;;11.37;;
7523;SDS011;3803;51.666;7.630;2023-12-07T00:19:01;17.83;;;10.93;;
7523;SDS011;3803;51.666;7.630;2023-12-07T00:19:22;17.17;;;10.90;;
7523;SDS011;3803;51.666;7.630;2023-12-07T00:19:43;16.95;;;11.02;;
7523;SDS011;3803;51.666;7.630;2023-12-07T00:20:04;17.65;;;11.32;;
7523;SDS011;3803;51.666;7.630;2023-12-07T00:20:25;18.25;;;11.43;;
7523;SDS011;3803;51.666;7.630;2023-12-07T00:20:46;18.50;;;11.70;;
7523;SDS011;3803;51.666;7.630;2023-12-07T00:21:09;19.80;;;12.05;;
7523;SDS011;3803;51.666;7.630;2023-12-07T00:21:30;19.40;;;11.80;;
7523;SDS011;3803;51.666;7.630;2023-12-07T00:21:51;21.20;;;12.20;;
7523;SDS011;3803;51.666;7.630;2023-12-07T00:22:11;18.38;;;11.70;;
7523;SDS011;3803;51.666;7.630;2023-12-07T00:22:32;17.75;;;11.45;;
7523;SDS011;3803;51.666;7.630;2023-12-07T00:22:53;15.85;;;11.30;;
7523;SDS011;3803;51.666;7.630;2023-12-07T00:23:14;15.73;;;11.55;;
7523;SDS011;3803;51.666;7.630;2023-12-07T00:23:35;15.55;;;11.30;;
7523;SDS011;3803;51.666;7.630;2023-12-07T00:23:57;15.43;;;11.50;;
7523;SDS011;3803;51.666;7.630;2023-12-07T00:24:18;16.92;;;11.40;;
7523;SDS011;3803;51.666;7.630;2023-12-07T00:24:38;17.87;;;12.20;;
7523;SDS011;3803;51.666;7.630;2023-12-07T00:24:59;17.73;;;12.13;;
7523;SDS011;3803;51.666;7.630;2023-12-07T00:25:19;20.23;;;12.07;;
7523;SDS011;3803;51.666;7.630;2023-12-07T00:25:40;20.08;;;11.75;;
7523;SDS011;3803;51.666;7.630;2023-12-07T00:26:02;20.10;;;11.88;;
7523;SDS011;3803;51.666;7.630;2023-12-07T00:26:23;17.58;;;12.40;;
7523;SDS011;3803;51.666;7.630;2023-12-07T00:26:44;17.50;;;12.13;;
7523;SDS011;3803;51.666;7.630;2023-12-07T00:27:05;17.90;;;12.05;;
7523;SDS011;3803;51.666;7.630;2023-12-07T00:27:26;18.03;;;12.20;;
7523;SDS011;3803;51.666;7.630;2023-12-07T00:27:46;17.63;;;12.10;;
7523;SDS011;3803;51.666;7.630;2023-12-07T00:31:48;21.17;;;11.60;;
7523;SDS011;3803;51.666;7.630;2023-12-07T00:32:09;23.30;;;12.45;;
7523;SDS011;3803;51.666;7.630;2023-12-07T00:32:29;20.00;;;11.90;;
7523;SDS011;3803;51.666;7.630;2023-12-07T00:32:50;19.60;;;12.30;;
7523;SDS011;3803;51.666;7.630;2023-12-07T00:33:11;20.45;;;12.05;;
7523;SDS011;3803;51.666;7.630;2023-12-07T00:33:31;21.15;;;11.82;;
7523;SDS011;3803;51.666;7.630;2023-12-07T00:33:52;19.30;;;11.50;;
7523;SDS011;3803;51.666;7.630;2023-12-07T00:34:12;15.88;;;11.02;;
7523;SDS011;3803;51.666;7.630;2023-12-07T00:34:33;14.27;;;11.25;;
7523;SDS011;3803;51.666;7.630;2023-12-07T00:34:54;15.85;;;11.48;;
7523;SDS011;3803;51.666;7.630;2023-12-07T00:35:15;19.27;;;11.85;;
7523;SDS011;3803;51.666;7.630;2023-12-07T00:35:36;20.70;;;12.13;;
7523;SDS011;3803;51.666;7.630;2023-12-07T00:35:57;20.17;;;12.95;;
7523;SDS011;3803;51.666;7.630;2023-12-07T00:41:02;17.77;;;12.05;;
7523;SDS011;3803;51.666;7.630;2023-12-07T00:41:23;16.30;;;11.85;;
7523;SDS011;3803;51.666;7.630;2023-12-07T00:41:43;17.90;;;12.10;;
7523;SDS011;3803;51.666;7.630;2023-12-07T00:42:04;21.63;;;13.00;;
7523;SDS011;3803;51.666;7.630;2023-12-07T00:42:24;21.42;;;12.85;;
7523;SDS011;3803;51.666;7.630;2023-12-07T00:42:45;20.77;;;12.90;;
7523;SDS011;3803;51.666;7.630;2023-12-07T00:43:07;17.38;;;11.90;;
7523;SDS011;3803;51.666;7.630;2023-12-07T00:43:27;18.52;;;12.32;;
7523;SDS011;3803;51.666;7.630;2023-12-07T00:43:48;20.05;;;12.15;;
7523;SDS011;3803;51.666;7.630;2023-12-07T00:44:08;21.63;;;12.70;;
7523;SDS011;3803;51.666;7.630;2023-12-07T00:44:29;19.85;;;12.50;;
7523;SDS011;3803;51.666;7.630;2023-12-07T00:44:49;18.60;;;11.60;;
7523;SDS011;3803;51.666;7.630;2023-12-07T00:45:11;18.47;;;11.87;;
7523;SDS011;3803;51.666;7.630;2023-12-07T00:45:32;19.30;;;12.48;;
7523;SDS011;3803;51.666;7.630;2023-12-07T00:45:53;18.00;;;13.20;;
7523;SDS011;3803;51.666;7.630;2023-12-07T00:46:14;18.13;;;12.68;;
7523;SDS011;3803;51.666;7.630;2023-12-07T00:46:34;19.40;;;12.38;;
7523;SDS011;3803;51.666;7.630;2023-12-07T00:46:55;20.87;;;12.17;;
7523;SDS011;3803;51.666;7.630;2023-12-07T00:47:15;20.85;;;12.50;;
7523;SDS011;3803;51.666;7.630;2023-12-07T00:47:36;20.25;;;12.40;;
7523;SDS011;3803;51.666;7.630;2023-12-07T00:47:57;21.40;;;12.60;;
7523;SDS011;3803;51.666;7.630;2023-12-07T00:48:17;21.27;;;12.45;;
7523;SDS011;3803;51.666;7.630;2023-12-07T00:48:38;20.77;;;12.20;;
7523;SDS011;3803;51.666;7.630;2023-12-07T00:48:58;21.73;;;11.70;;
7523;SDS011;3803;51.666;7.630;2023-12-07T00:49:19;21.20;;;11.50;;
7523;SDS011;3803;51.666;7.630;2023-12-07T00:49:40;21.08;;;11.85;;
7523;SDS011;3803;51.666;7.630;2023-12-07T00:50:01;19.17;;;12.65;;
7523;SDS011;3803;51.666;7.630;2023-12-07T00:50:22;19.60;;;13.15;;
7523;SDS011;3803;51.666;7.630;2023-12-07T00:50:43;20.33;;;13.10;;
7523;SDS011;3803;51.666;7.630;2023-12-07T00:51:04;19.50;;;12.98;;
7523;SDS011;3803;51.666;7.630;2023-12-07T00:51:26;19.70;;;13.00;;
7523;SDS011;3803;51.666;7.630;2023-12-07T00:51:47;19.47;;;12.90;;
7523;SDS011;3803;51.666;7.630;2023-12-07T00:52:08;20.83;;;13.55;;
7523;SDS011;3803;51.666;7.630;2023-12-07T00:52:29;21.15;;;13.23;;
7523;SDS011;3803;51.666;7.630;2023-12-07T00:52:50;18.33;;;12.70;;
7523;SDS011;3803;51.666;7.630;2023-12-07T00:53:10;18.85;;;12.65;;
7523;SDS011;3803;51.666;7.630;2023-12-07T00:53:31;18.05;;;12.32;;
7523;SDS011;3803;51.666;7.630;2023-12-07T00:53:51;19.60;;;12.03;;
7523;SDS011;3803;51.666;7.630;2023-12-07T00:54:12;19.33;;;11.98;;
7523;SDS011;3803;51.666;7.630;2023-12-07T00:54:33;22.60;;;13.05;;
7523;SDS011;3803;51.666;7.630;2023-12-07T00:54:54;20.87;;;13.37;;
7523;SDS011;3803;51.666;7.630;2023-12-07T00:55:14;21.48;;;12.80;;
7523;SDS011;3803;51.666;7.630;2023-12-07T00:55:35;20.23;;;12.40;;
7523;SDS011;3803;51.666;7.630;2023-12-07T00:55:57;21.65;;;12.45;;
7523;SDS011;3803;51.666;7.630;2023-12-07T00:56:18;24.55;;;13.48;;
7523;SDS011;3803;51.666;7.630;2023-12-07T00:56:38;23.25;;;13.40;;
7523;SDS011;3803;51.666;7.630;2023-12-07T00:56:59;20.50;;;12.90;;
7523;SDS011;3803;51.666;7.630;2023-12-07T00:57:20;17.77;;;12.20;;
7523;SDS011;3803;51.666;7.630;2023-12-07T00:57:41;20.25;;;12.88;;
7523;SDS011;3803;51.666;7.630;2023-12-07T00:58:01;21.80;;;13.33;;
7523;SDS011;3803;51.666;7.630;2023-12-07T00:58:22;22.02;;;13.27;;
7523;SDS011;3803;51.666;7.630;2023-12-07T00:58:43;20.35;;;12.98;;
7523;SDS011;3803;51.666;7.630;2023-12-07T00:59:04;18.05;;;12.50;;
7523;SDS011;3803;51.666;7.630;2023-12-07T00:59:26;17.48;;;12.38;;
7523;SDS011;3803;51.666;7.630;2023-12-07T00:59:47;18.58;;;12.10;;
7523;SDS011;3803;51.666;7.630;2023-12-07T01:00:08;21.55;;;12.63;;
7523;SDS011;3803;51.666;7.630;2023-12-07T01:00:30;21.45;;;12.40;;
7523;SDS011;3803;51.666;7.630;2023-12-07T01:00:51;17.98;;;11.80;;
7523;SDS011;3803;51.666;7.630;2023-12-07T01:02:22;25.58;;;13.25;;
7523;SDS011;3803;51.666;7.630;2023-12-07T01:02:42;20.20;;;13.10;;
7523;SDS011;3803;51.666;7.630;2023-12-07T01:03:03;20.30;;;12.77;;
7523;SDS011;3803;51.666;7.630;2023-12-07T01:03:25;19.63;;;12.15;;
7523;SDS011;3803;51.666;7.630;2023-12-07T01:05:03;18.45;;;12.10;;
7523;SDS011;3803;51.666;7.630;2023-12-07T01:05:24;20.58;;;12.60;;
7523;SDS011;3803;51.666;7.630;2023-12-07T01:05:44;23.17;;;13.17;;
7523;SDS011;3803;51.666;7.630;2023-12-07T01:06:06;22.58;;;12.80;;
7523;SDS011;3803;51.666;7.630;2023-12-07T01:06:27;22.30;;;12.60;;
7523;SDS011;3803;51.666;7.630;2023-12-07T01:06:48;20.98;;;12.50;;
7523;SDS011;3803;51.666;7.630;2023-12-07T01:07:09;21.17;;;12.98;;
7523;SDS011;3803;51.666;7.630;2023-12-07T01:07:30;19.45;;;12.90;;
7523;SDS011;3803;51.666;7.630;2023-12-07T01:07:51;23.10;;;12.80;;
7523;SDS011;3803;51.666;7.630;2023-12-07T01:08:12;22.27;;;12.32;;
7523;SDS011;3803;51.666;7.630;2023-12-07T01:08:33;23.33;;;12.48;;
7523;SDS011;3803;51.666;7.630;2023-12-07T01:08:53;18.13;;;12.40;;
7523;SDS011;3803;51.666;7.630;2023-12-07T01:09:14;21.02;;;12.45;;
7523;SDS011;3803;51.666;7.630;2023-12-07T01:09:35;22.92;;;12.73;;
7523;SDS011;3803;51.666;7.630;2023-12-07T01:09:56;24.20;;;12.88;;
7523;SDS011;3803;51.666;7.630;2023-12-07T01:10:17;23.92;;;13.50;;
7523;SDS011;3803;51.666;7.630;2023-12-07T01:10:38;23.88;;;13.40;;
7523;SDS011;3803;51.666;7.630;2023-12-07T01:10:59;22.17;;;12.75;;
7523;SDS011;3803;51.666;7.630;2023-12-07T01:11:20;19.23;;;12.20;;
7523;SDS011;3803;51.666;7.630;2023-12-07T01:11:41;16.37;;;12.20;;
7523;SDS011;3803;51.666;7.630;2023-12-07T01:12:02;15.95;;;12.20;;
7523;SDS011;3803;51.666;7.630;2023-12-07T01:12:23;18.55;;;12.40;;
7523;SDS011;3803;51.666;7.630;2023-12-07T01:12:44;20.15;;;12.80;;
7523;SDS011;3803;51.666;7.630;2023-12-07T01:13:05;22.35;;;12.80;;
7523;SDS011;3803;51.666;7.630;2023-12-07T01:13:25;21.23;;;12.47;;
7523;SDS011;3803;51.666;7.630;2023-12-07T01:13:46;19.05;;;11.48;;
7523;SDS011;3803;51.666;7.630;2023-12-07T01:14:07;17.25;;;11.40;;
7523;SDS011;3803;51.666;7.630;2023-12-07T01:14:28;17.23;;;11.93;;
7523;SDS011;3803;51.666;7.630;2023-12-07T01:14:49;19.15;;;12.73;;
7523;SDS011;3803;51.666;7.630;2023-12-07T01:15:09;19.40;;;12.83;;
7523;SDS011;3803;51.666;7.630;2023-12-07T01:15:30;19.63;;;12.90;;
7523;SDS011;3803;51.666;7.630;2023-12-07T01:15:51;19.00;;;12.65;;
7523;SDS011;3803;51.666;7.630;2023-12-07T01:16:11;19.50;;;12.65;;
7523;SDS011;3803;51.666;7.630;2023-12-07T01:16:32;23.40;;;13.05;;
7523;SDS011;3803;51.666;7.630;2023-12-07T01:16:54;23.13;;;13.25;;
7523;SDS011;3803;51.666;7.630;2023-12-07T01:17:15;23.50;;;13.20;;
7523;SDS011;3803;51.666;7.630;2023-12-07T01:17:35;20.63;;;12.80;;
7523;SDS011;3803;51.666;7.630;2023-12-07T01:17:56;19.95;;;12.52;;
7523;SDS011;3803;51.666;7.630;2023-12-07T01:18:17;18.38;;;12.70;;
7523;SDS011;3803;51.666;7.630;2023-12-07T01:18:37;18.50;;;12.87;;
7523;SDS011;3803;51.666;7.630;2023-12-07T01:18:58;19.55;;;12.80;;
7523;SDS011;3803;51.666;7.630;2023-12-07T01:19:19;24.70;;;13.10;;
7523;SDS011;3803;51.666;7.630;2023-12-07T01:19:40;25.98;;;13.60;;
7523;SDS011;3803;51.666;7.630;2023-12-07T01:20:01;24.70;;;13.60;;
7523;SDS011;3803;51.666;7.630;2023-12-07T01:20:24;20.85;;;13.60;;
7523;SDS011;3803;51.666;7.630;2023-12-07T01:20:44;21.65;;;13.48;;
7523;SDS011;3803;51.666;7.630;2023-12-07T01:21:05;21.50;;;13.40;;
7523;SDS011;3803;51.666;7.630;2023-12-07T01:21:26;23.10;;;13.68;;
7523;SDS011;3803;51.666;7.630;2023-12-07T01:21:46;21.93;;;13.83;;
7523;SDS011;3803;51.666;7.630;2023-12-07T01:22:07;20.80;;;13.30;;
7523;SDS011;3803;51.666;7.630;2023-12-07T01:22:28;21.42;;;12.90;;
7523;SDS011;3803;51.666;7.630;2023-12-07T01:22:49;21.27;;;12.77;;
7523;SDS011;3803;51.666;7.630;2023-12-07T01:23:10;22.75;;;13.75;;
7523;SDS011;3803;51.666;7.630;2023-12-07T01:23:31;26.80;;;14.67;;
7523;SDS011;3803;51.666;7.630;2023-12-07T01:23:52;28.20;;;14.63;;
7523;SDS011;3803;51.666;7.630;2023-12-07T01:24:13;27.83;;;14.32;;
7523;SDS011;3803;51.666;7.630;2023-12-07T01:24:33;23.20;;;14.20;;
7523;SDS011;3803;51.666;7.630;2023-12-07T01:24:54;22.17;;;14.47;;
7523;SDS011;3803;51.666;7.630;2023-12-07T01:25:14;22.88;;;14.63;;
7523;SDS011;3803;51.666;7.630;2023-12-07T01:25:40;24.08;;;14.98;;
7523;SDS011;3803;51.666;7.630;2023-12-07T01:26:00;23.73;;;14.80;;
7523;SDS011;3803;51.666;7.630;2023-12-07T01:26:22;23.85;;;14.50;;
7523;SDS011;3803;51.666;7.630;2023-12-07T01:26:43;23.95;;;14.52;;
7523;SDS011;3803;51.666;7.630;2023-12-07T01:27:04;26.00;;;14.50;;
7523;SDS011;3803;51.666;7.630;2023-12-07T01:27:24;23.33;;;14.43;;
7523;SDS011;3803;51.666;7.630;2023-12-07T01:27:45;23.05;;;14.57;;
7523;SDS011;3803;51.666;7.630;2023-12-07T01:28:06;23.48;;;14.82;;
7523;SDS011;3803;51.666;7.630;2023-12-07T01:28:26;27.40;;;15.03;;
7523;SDS011;3803;51.666;7.630;2023-12-07T01:28:47;27.00;;;14.97;;
7523;SDS011;3803;51.666;7.630;2023-12-07T01:29:07;25.15;;;14.50;;
7523;SDS011;3803;51.666;7.630;2023-12-07T01:29:28;22.77;;;14.47;;
7523;SDS011;3803;51.666;7.630;2023-12-07T01:29:49;23.10;;;13.90;;
7523;SDS011;3803;51.666;7.630;2023-12-07T01:30:09;23.52;;;14.35;;
7523;SDS011;3803;51.666;7.630;2023-12-07T01:30:30;24.77;;;14.23;;
7523;SDS011;3803;51.666;7.630;2023-12-07T01:30:51;24.97;;;14.70;;
7523;SDS011;3803;51.666;7.630;2023-12-07T01:31:11;27.07;;;15.30;;
7523;SDS011;3803;51.666;7.630;2023-12-07T01:31:32;26.00;;;15.45;;
7523;SDS011;3803;51.666;7.630;2023-12-07T01:31:54;26.23;;;16.08;;
7523;SDS011;3803;51.666;7.630;2023-12-07T01:32:15;26.13;;;15.68;;
7523;SDS011;3803;51.666;7.630;2023-12-07T01:32:36;26.15;;;15.90;;
7523;SDS011;3803;51.666;7.630;2023-12-07T01:32:57;24.20;;;15.65;;
7523;SDS011;3803;51.666;7.630;2023-12-07T01:33:17;24.92;;;15.88;;
7523;SDS011;3803;51.666;7.630;2023-12-07T01:33:38;23.47;;;14.90;;
7523;SDS011;3803;51.666;7.630;2023-12-07T01:33:59;22.88;;;14.50;;
7523;SDS011;3803;51.666;7.630;2023-12-07T01:34:19;21.70;;;14.25;;
7523;SDS011;3803;51.666;7.630;2023-12-07T01:34:40;22.38;;;14.73;;
7523;SDS011;3803;51.666;7.630;2023-12-07T01:35:02;23.50;;;15.07;;
7523;SDS011;3803;51.666;7.630;2023-12-07T01:35:23;23.80;;;15.93;;
7523;SDS011;3803;51.666;7.630;2023-12-07T01:35:43;25.87;;;16.33;;
7523;SDS011;3803;51.666;7.630;2023-12-07T01:36:04;26.30;;;16.60;;
7523;SDS011;3803;51.666;7.630;2023-12-07T01:36:25;27.20;;;17.02;;
7523;SDS011;3803;51.666;7.630;2023-12-07T01:36:45;29.40;;;16.90;;
7523;SDS011;3803;51.666;7.630;2023-12-07T01:37:06;30.27;;;17.10;;
7523;SDS011;3803;51.666;7.630;2023-12-07T01:37:28;33.17;;;17.10;;
7523;SDS011;3803;51.666;7.630;2023-12-07T01:37:49;32.88;;;17.95;;
7523;SDS011;3803;51.666;7.630;2023-12-07T01:38:10;29.25;;;17.77;;
7523;SDS011;3803;51.666;7.630;2023-12-07T01:38:31;28.90;;;17.40;;
7523;SDS011;3803;51.666;7.630;2023-12-07T01:38:52;26.67;;;16.67;;
7523;SDS011;3803;51.666;7.630;2023-12-07T01:39:12;26.43;;;16.40;;
7523;SDS011;3803;51.666;7.630;2023-12-07T01:39:33;26.67;;;16.10;;
7523;SDS011;3803;51.666;7.630;2023-12-07T01:39:53;27.90;;;16.80;;
7523;SDS011;3803;51.666;7.630;2023-12-07T01:40:14;27.10;;;17.05;;
7523;SDS011;3803;51.666;7.630;2023-12-07T01:40:36;29.08;;;18.02;;
7523;SDS011;3803;51.666;7.630;2023-12-07T01:40:57;27.58;;;17.40;;
7523;SDS011;3803;51.666;7.630;2023-12-07T01:41:18;27.84;;;17.14;;
7523;SDS011;3803;51.666;7.630;2023-12-07T01:41:39;28.30;;;17.23;;
7523;SDS011;3803;51.666;7.630;2023-12-07T01:42:00;30.65;;;17.17;;
7523;SDS011;3803;51.666;7.630;2023-12-07T01:42:21;30.87;;;16.83;;
7523;SDS011;3803;51.666;7.630;2023-12-07T01:42:51;31.87;;;17.97;;
7523;SDS011;3803;51.666;7.630;2023-12-07T01:43:13;34.88;;;19.10;;
7523;SDS011;3803;51.666;7.630;2023-12-07T01:43:33;35.57;;;19.30;;
7523;SDS011;3803;51.666;7.630;2023-12-07T01:43:54;35.17;;;19.35;;
7523;SDS011;3803;51.666;7.630;2023-12-07T01:44:18;33.35;;;19.50;;
7523;SDS011;3803;51.666;7.630;2023-12-07T01:44:38;32.87;;;19.17;;
7523;SDS011;3803;51.666;7.630;2023-12-07T01:45:00;32.75;;;18.75;;
7523;SDS011;3803;51.666;7.630;2023-12-07T01:45:20;33.38;;;18.52;;
7523;SDS011;3803;51.666;7.630;2023-12-07T01:45:41;32.97;;;18.03;;
7523;SDS011;3803;51.666;7.630;2023-12-07T01:46:02;34.17;;;18.45;;
7523;SDS011;3803;51.666;7.630;2023-12-07T01:46:23;34.30;;;18.60;;
7523;SDS011;3803;51.666;7.630;2023-12-07T01:46:45;35.50;;;19.15;;
7523;SDS011;3803;51.666;7.630;2023-12-07T01:47:06;33.88;;;19.02;;
7523;SDS011;3803;51.666;7.630;2023-12-07T01:47:28;37.67;;;19.23;;
7523;SDS011;3803;51.666;7.630;2023-12-07T01:47:49;37.85;;;19.02;;
7523;SDS011;3803;51.666;7.630;2023-12-07T01:48:11;37.47;;;18.40;;
7523;SDS011;3803;51.666;7.630;2023-12-07T01:48:32;35.33;;;18.75;;
7523;SDS011;3803;51.666;7.630;2023-12-07T01:48:52;32.65;;;18.45;;
7523;SDS011;3803;51.666;7.630;2023-12-07T01:49:13;32.28;;;18.67;;
7523;SDS011;3803;51.666;7.630;2023-12-07T01:49:34;33.33;;;18.33;;
7523;SDS011;3803;51.666;7.630;2023-12-07T01:49:56;35.35;;;18.60;;
7523;SDS011;3803;51.666;7.630;2023-12-07T01:50:17;34.05;;;18.40;;
7523;SDS011;3803;51.666;7.630;2023-12-07T01:50:43;33.03;;;18.30;;
7523;SDS011;3803;51.666;7.630;2023-12-07T01:51:04;29.85;;;18.45;;
7523;SDS011;3803;51.666;7.630;2023-12-07T01:51:26;29.95;;;18.60;;
7523;SDS011;3803;51.666;7.630;2023-12-07T01:51:47;33.22;;;19.08;;
7523;SDS011;3803;51.666;7.630;2023-12-07T01:52:08;35.45;;;19.40;;
7523;SDS011;3803;51.666;7.630;2023-12-07T01:52:29;32.78;;;18.98;;
7523;SDS011;3803;51.666;7.630;2023-12-07T01:52:51;29.55;;;18.20;;
7523;SDS011;3803;51.666;7.630;2023-12-07T01:53:16;29.33;;;18.58;;
7523;SDS011;3803;51.666;7.630;2023-12-07T01:53:38;33.97;;;20.27;;
7523;SDS011;3803;51.666;7.630;2023-12-07T01:53:59;36.75;;;20.50;;
7523;SDS011;3803;51.666;7.630;2023-12-07T01:54:21;39.50;;;20.38;;
7523;SDS011;3803;51.666;7.630;2023-12-07T01:54:42;40.10;;;19.87;;
7523;SDS011;3803;51.666;7.630;2023-12-07T01:55:02;41.58;;;19.88;;
7523;SDS011;3803;51.666;7.630;2023-12-07T01:55:24;40.28;;;19.85;;
7523;SDS011;3803;51.666;7.630;2023-12-07T01:55:47;35.85;;;19.58;;
7523;SDS011;3803;51.666;7.630;2023-12-07T01:56:08;32.88;;;19.90;;
7523;SDS011;3803;51.666;7.630;2023-12-07T01:56:30;34.33;;;19.90;;
7523;SDS011;3803;51.666;7.630;2023-12-07T01:56:52;35.42;;;20.20;;
7523;SDS011;3803;51.666;7.630;2023-12-07T01:57:13;35.72;;;20.15;;
7523;SDS011;3803;51.666;7.630;2023-12-07T01:57:33;34.67;;;19.90;;
7523;SDS011;3803;51.666;7.630;2023-12-07T01:57:55;34.28;;;19.58;;
7523;SDS011;3803;51.666;7.630;2023-12-07T01:58:17;37.00;;;20.17;;
7523;SDS011;3803;51.666;7.630;2023-12-07T01:58:38;37.47;;;20.77;;
7523;SDS011;3803;51.666;7.630;2023-12-07T01:59:00;37.42;;;20.75;;
7523;SDS011;3803;51.666;7.630;2023-12-07T01:59:21;35.60;;;21.23;;
7523;SDS011;3803;51.666;7.630;2023-12-07T01:59:42;34.70;;;19.98;;
7523;SDS011;3803;51.666;7.630;2023-12-07T02:00:03;37.53;;;19.73;;
7523;SDS011;3803;51.666;7.630;2023-12-07T02:00:25;42.55;;;19.63;;
7523;SDS011;3803;51.666;7.630;2023-12-07T02:00:47;38.15;;;19.63;;
7523;SDS011;3803;51.666;7.630;2023-12-07T02:01:08;35.28;;;19.30;;
7523;SDS011;3803;51.666;7.630;2023-12-07T02:01:31;31.17;;;19.17;;
7523;SDS011;3803;51.666;7.630;2023-12-07T02:01:52;33.10;;;19.48;;
7523;SDS011;3803;51.666;7.630;2023-12-07T02:02:13;33.25;;;19.63;;
7523;SDS011;3803;51.666;7.630;2023-12-07T02:02:34;35.60;;;19.88;;
7523;SDS011;3803;51.666;7.630;2023-12-07T02:02:54;36.30;;;20.33;;
7523;SDS011;3803;51.666;7.630;2023-12-07T02:03:15;37.28;;;20.70;;
7523;SDS011;3803;51.666;7.630;2023-12-07T02:03:40;37.00;;;21.60;;
7523;SDS011;3803;51.666;7.630;2023-12-07T02:04:01;37.08;;;21.40;;
7523;SDS011;3803;51.666;7.630;2023-12-07T02:04:21;35.70;;;21.30;;
7523;SDS011;3803;51.666;7.630;2023-12-07T02:04:43;39.78;;;22.00;;
7523;SDS011;3803;51.666;7.630;2023-12-07T02:05:04;39.83;;;23.10;;
7523;SDS011;3803;51.666;7.630;2023-12-07T02:05:25;43.83;;;23.15;;
7523;SDS011;3803;51.666;7.630;2023-12-07T02:05:47;40.17;;;22.08;;
7523;SDS011;3803;51.666;7.630;2023-12-07T02:06:09;41.78;;;21.55;;
7523;SDS011;3803;51.666;7.630;2023-12-07T02:06:30;43.33;;;22.05;;
7523;SDS011;3803;51.666;7.630;2023-12-07T02:06:52;45.67;;;22.23;;
7523;SDS011;3803;51.666;7.630;2023-12-07T02:07:16;48.85;;;21.70;;
7523;SDS011;3803;51.666;7.630;2023-12-07T02:07:38;48.13;;;22.17;;
7523;SDS011;3803;51.666;7.630;2023-12-07T02:08:02;48.10;;;23.02;;
7523;SDS011;3803;51.666;7.630;2023-12-07T02:08:23;44.17;;;23.52;;
7523;SDS011;3803;51.666;7.630;2023-12-07T02:08:44;42.37;;;23.07;;
7523;SDS011;3803;51.666;7.630;2023-12-07T02:09:05;34.83;;;21.13;;
7523;SDS011;3803;51.666;7.630;2023-12-07T02:09:26;42.78;;;21.77;;
7523;SDS011;3803;51.666;7.630;2023-12-07T02:09:46;50.28;;;22.70;;
7523;SDS011;3803;51.666;7.630;2023-12-07T02:10:07;56.70;;;24.53;;
7523;SDS011;3803;51.666;7.630;2023-12-07T02:10:28;50.55;;;24.50;;
7523;SDS011;3803;51.666;7.630;2023-12-07T02:10:50;50.63;;;23.75;;
7523;SDS011;3803;51.666;7.630;2023-12-07T02:11:12;51.10;;;23.75;;
7523;SDS011;3803;51.666;7.630;2023-12-07T02:11:33;51.28;;;23.45;;
7523;SDS011;3803;51.666;7.630;2023-12-07T02:11:54;50.72;;;23.73;;
7523;SDS011;3803;51.666;7.630;2023-12-07T02:12:14;46.87;;;23.80;;
7523;SDS011;3803;51.666;7.630;2023-12-07T02:12:35;49.47;;;23.80;;
7523;SDS011;3803;51.666;7.630;2023-12-07T02:12:56;45.20;;;23.65;;
7523;SDS011;3803;51.666;7.630;2023-12-07T02:13:17;44.63;;;23.75;;
7523;SDS011;3803;51.666;7.630;2023-12-07T02:13:40;44.10;;;24.48;;
7523;SDS011;3803;51.666;7.630;2023-12-07T02:14:02;44.15;;;24.08;;
7523;SDS011;3803;51.666;7.630;2023-12-07T02:14:23;44.92;;;23.58;;
7523;SDS011;3803;51.666;7.630;2023-12-07T02:14:43;45.40;;;24.08;;
7523;SDS011;3803;51.666;7.630;2023-12-07T02:15:04;48.13;;;24.77;;
7523;SDS011;3803;51.666;7.630;2023-12-07T02:15:27;48.08;;;25.88;;
7523;SDS011;3803;51.666;7.630;2023-12-07T02:15:48;47.40;;;25.40;;
7523;SDS011;3803;51.666;7.630;2023-12-07T02:16:13;50.47;;;25.58;;
7523;SDS011;3803;51.666;7.630;2023-12-07T02:18:01;48.00;;;26.02;;
7523;SDS011;3803;51.666;7.630;2023-12-07T02:18:48;46.80;;;25.60;;
7523;SDS011;3803;51.666;7.630;2023-12-07T02:19:24;46.85;;;25.02;;
7523;SDS011;3803;51.666;7.630;2023-12-07T02:20:52;50.38;;;26.20;;
7523;SDS011;3803;51.666;7.630;2023-12-07T02:21:23;55.60;;;25.88;;